sensor_id;sensor_type;location;lat;lon;timestamp;pressure;altitude;pressure_sealevel;temperature;humidity
72707;BME280;62517;62.630;17.936;2022-09-29T06:10:45;100980.86;;;18.02;43.48
72707;BME280;62517;62.630;17.936;2022-09-29T06:13:14;100984.19;;;17.89;43.12
72707;BME280;62517;62.630;17.936;2022-09-29T06:15:42;100986.91;;;17.99;42.86
72707;BME280;62517;62.630;17.936;2022-09-29T06:18:10;100982.44;;;17.99;42.64
72707;BME280;62517;62.630;17.936;2022-09-29T06:20:38;100977.87;;;18.12;42.47
72707;BME280;62517;62.630;17.936;2022-09-29T06:23:06;100970.83;;;18.11;42.25
72707;BME280;62517;62.630;17.936;2022-09-29T06:25:33;100968.65;;;18.20;42.04
72707;BME280;62517;62.630;17.936;2022-09-29T06:28:01;100968.05;;;18.39;41.78
72707;BME280;62517;62.630;17.936;2022-09-29T06:30:29;100972.49;;;18.63;41.34
72707;BME280;62517;62.630;17.936;2022-09-29T06:32:57;100966.15;;;18.95;41.23
72707;BME280;62517;62.630;17.936;2022-09-29T06:35:25;100963.61;;;19.11;40.99
72707;BME280;62517;62.630;17.936;2022-09-29T06:37:53;100967.35;;;19.51;40.54
72707;BME280;62517;62.630;17.936;2022-09-29T06:40:23;100958.95;;;19.62;40.41
72707;BME280;62517;62.630;17.936;2022-09-29T06:42:51;100954.73;;;19.84;39.99
72707;BME280;62517;62.630;17.936;2022-09-29T06:45:18;100954.02;;;20.19;39.80
72707;BME280;62517;62.630;17.936;2022-09-29T06:47:46;100953.97;;;20.39;39.58
72707;BME280;62517;62.630;17.936;2022-09-29T06:50:15;100954.30;;;20.46;39.39
72707;BME280;62517;62.630;17.936;2022-09-29T06:52:44;100952.68;;;20.60;38.72
72707;BME280;62517;62.630;17.936;2022-09-29T06:55:19;100958.75;;;20.83;38.91
72707;BME280;62517;62.630;17.936;2022-09-29T06:57:48;100955.50;;;20.93;38.72
72707;BME280;62517;62.630;17.936;2022-09-29T07:00:18;100957.20;;;21.12;38.61
72707;BME280;62517;62.630;17.936;2022-09-29T07:02:48;100953.41;;;21.29;38.30
72707;BME280;62517;62.630;17.936;2022-09-29T07:05:17;100955.49;;;21.39;38.09
72707;BME280;62517;62.630;17.936;2022-09-29T07:07:47;100954.81;;;21.47;38.12
72707;BME280;62517;62.630;17.936;2022-09-29T07:10:16;100953.90;;;21.45;37.72
72707;BME280;62517;62.630;17.936;2022-09-29T07:12:46;100954.50;;;21.53;37.81
72707;BME280;62517;62.630;17.936;2022-09-29T07:15:15;100957.59;;;21.77;37.65
72707;BME280;62517;62.630;17.936;2022-09-29T07:17:43;100954.98;;;21.81;37.41
72707;BME280;62517;62.630;17.936;2022-09-29T07:20:12;100957.33;;;21.95;37.46
72707;BME280;62517;62.630;17.936;2022-09-29T07:22:41;100958.68;;;22.15;37.34
72707;BME280;62517;62.630;17.936;2022-09-29T07:25:09;100961.57;;;22.16;37.04
72707;BME280;62517;62.630;17.936;2022-09-29T07:27:37;100961.71;;;22.25;37.15
72707;BME280;62517;62.630;17.936;2022-09-29T07:30:06;100957.93;;;22.39;37.00
72707;BME280;62517;62.630;17.936;2022-09-29T07:32:35;100961.57;;;22.35;36.98
72707;BME280;62517;62.630;17.936;2022-09-29T07:35:05;100960.67;;;22.36;36.93
72707;BME280;62517;62.630;17.936;2022-09-29T07:37:33;100963.14;;;22.42;36.86
72707;BME280;62517;62.630;17.936;2022-09-29T07:40:03;100961.35;;;22.48;36.55
72707;BME280;62517;62.630;17.936;2022-09-29T07:42:32;100961.94;;;22.64;36.68
72707;BME280;62517;62.630;17.936;2022-09-29T07:45:00;100957.10;;;22.63;36.16
72707;BME280;62517;62.630;17.936;2022-09-29T07:47:28;100952.99;;;22.75;36.56
72707;BME280;62517;62.630;17.936;2022-09-29T07:49:56;100952.99;;;22.84;36.46
72707;BME280;62517;62.630;17.936;2022-09-29T07:52:24;100954.99;;;22.67;36.40
72707;BME280;62517;62.630;17.936;2022-09-29T07:54:51;100959.14;;;22.83;36.37
72707;BME280;62517;62.630;17.936;2022-09-29T07:57:19;100955.23;;;22.80;36.32
72707;BME280;62517;62.630;17.936;2022-09-29T07:59:47;100951.59;;;22.84;35.78
72707;BME280;62517;62.630;17.936;2022-09-29T08:02:17;100947.70;;;22.88;36.18
72707;BME280;62517;62.630;17.936;2022-09-29T08:04:45;100945.27;;;23.03;35.68
72707;BME280;62517;62.630;17.936;2022-09-29T08:07:17;100944.92;;;23.08;36.03
72707;BME280;62517;62.630;17.936;2022-09-29T08:09:45;100945.50;;;23.05;35.98
72707;BME280;62517;62.630;17.936;2022-09-29T08:12:23;100943.88;;;22.97;35.98
72707;BME280;62517;62.630;17.936;2022-09-29T08:14:52;100945.72;;;23.08;35.57
72707;BME280;62517;62.630;17.936;2022-09-29T08:17:21;100948.40;;;23.12;35.61
72707;BME280;62517;62.630;17.936;2022-09-29T08:19:49;100943.18;;;23.23;35.58
72707;BME280;62517;62.630;17.936;2022-09-29T08:22:17;100940.46;;;23.29;35.54
72707;BME280;62517;62.630;17.936;2022-09-29T08:24:45;100942.69;;;23.05;35.64
72707;BME280;62517;62.630;17.936;2022-09-29T08:27:13;100945.32;;;23.24;35.46
72707;BME280;62517;62.630;17.936;2022-09-29T08:29:45;100941.06;;;23.28;35.54
72707;BME280;62517;62.630;17.936;2022-09-29T08:32:15;100937.98;;;23.29;35.57
72707;BME280;62517;62.630;17.936;2022-09-29T08:34:43;100937.68;;;23.29;35.54
72707;BME280;62517;62.630;17.936;2022-09-29T08:37:11;100932.53;;;23.45;35.58
72707;BME280;62517;62.630;17.936;2022-09-29T08:39:40;100929.95;;;23.38;35.58
72707;BME280;62517;62.630;17.936;2022-09-29T08:42:14;100926.24;;;23.32;35.11
72707;BME280;62517;62.630;17.936;2022-09-29T08:44:50;100926.20;;;23.38;35.04
72707;BME280;62517;62.630;17.936;2022-09-29T08:47:26;100921.98;;;23.31;35.28
72707;BME280;62517;62.630;17.936;2022-09-29T08:49:59;100927.07;;;23.39;34.99
72707;BME280;62517;62.630;17.936;2022-09-29T08:52:33;100920.89;;;23.49;35.34
72707;BME280;62517;62.630;17.936;2022-09-29T08:55:21;100923.23;;;23.55;35.30
72707;BME280;62517;62.630;17.936;2022-09-29T08:57:56;100927.73;;;23.44;35.08
72707;BME280;62517;62.630;17.936;2022-09-29T09:00:33;100927.26;;;23.47;35.27
72707;BME280;62517;62.630;17.936;2022-09-29T09:03:13;100929.06;;;23.55;35.09
72707;BME280;62517;62.630;17.936;2022-09-29T09:05:57;100925.61;;;23.44;35.26
72707;BME280;62517;62.630;17.936;2022-09-29T09:08:41;100929.53;;;23.47;35.23
72707;BME280;62517;62.630;17.936;2022-09-29T09:11:24;100931.18;;;23.54;35.13
72707;BME280;62517;62.630;17.936;2022-09-29T09:14:04;100934.43;;;23.70;35.03
72707;BME280;62517;62.630;17.936;2022-09-29T09:16:51;100934.30;;;23.65;35.00
72707;BME280;62517;62.630;17.936;2022-09-29T09:19:35;100934.34;;;23.63;34.68
72707;BME280;62517;62.630;17.936;2022-09-29T09:22:19;100935.04;;;23.62;35.06
72707;BME280;62517;62.630;17.936;2022-09-29T09:24:57;100935.78;;;23.70;34.84
72707;BME280;62517;62.630;17.936;2022-09-29T09:27:28;100933.78;;;23.66;34.83
72707;BME280;62517;62.630;17.936;2022-09-29T09:30:03;100929.37;;;23.59;34.72
72707;BME280;62517;62.630;17.936;2022-09-29T09:32:38;100932.47;;;23.69;34.95
72707;BME280;62517;62.630;17.936;2022-09-29T09:35:27;100930.89;;;23.60;34.66
72707;BME280;62517;62.630;17.936;2022-09-29T09:38:02;100937.27;;;23.63;34.93
72707;BME280;62517;62.630;17.936;2022-09-29T09:40:37;100936.51;;;23.71;34.85
72707;BME280;62517;62.630;17.936;2022-09-29T09:43:13;100936.03;;;23.71;34.86
72707;BME280;62517;62.630;17.936;2022-09-29T09:45:47;100938.17;;;23.72;34.60
72707;BME280;62517;62.630;17.936;2022-09-29T09:48:28;100932.29;;;23.81;34.74
72707;BME280;62517;62.630;17.936;2022-09-29T09:51:00;100929.89;;;23.81;34.68
72707;BME280;62517;62.630;17.936;2022-09-29T09:53:33;100929.25;;;23.78;34.75
72707;BME280;62517;62.630;17.936;2022-09-29T09:56:11;100930.10;;;23.83;34.48
72707;BME280;62517;62.630;17.936;2022-09-29T09:59:08;100931.76;;;23.84;34.53
72707;BME280;62517;62.630;17.936;2022-09-29T10:03:15;100933.69;;;23.76;34.67
72707;BME280;62517;62.630;17.936;2022-09-29T10:05:46;100930.20;;;23.72;34.64
72707;BME280;62517;62.630;17.936;2022-09-29T10:08:27;100924.29;;;23.79;34.59
72707;BME280;62517;62.630;17.936;2022-09-29T10:10:57;100924.42;;;23.84;34.29
72707;BME280;62517;62.630;17.936;2022-09-29T10:13:29;100927.82;;;23.78;34.54
72707;BME280;62517;62.630;17.936;2022-09-29T10:16:04;100920.29;;;23.86;34.16
72707;BME280;62517;62.630;17.936;2022-09-29T10:18:40;100918.26;;;23.91;34.34
72707;BME280;62517;62.630;17.936;2022-09-29T10:21:19;100918.81;;;23.76;34.33
72707;BME280;62517;62.630;17.936;2022-09-29T10:23:50;100919.21;;;23.78;33.96
72707;BME280;62517;62.630;17.936;2022-09-29T10:26:22;100921.92;;;23.95;34.25
72707;BME280;62517;62.630;17.936;2022-09-29T10:28:54;100922.03;;;23.90;34.34
72707;BME280;62517;62.630;17.936;2022-09-29T10:31:26;100922.35;;;23.85;34.19
72707;BME280;62517;62.630;17.936;2022-09-29T10:33:57;100921.55;;;23.86;34.13
72707;BME280;62517;62.630;17.936;2022-09-29T10:36:30;100926.24;;;23.90;34.40
72707;BME280;62517;62.630;17.936;2022-09-29T10:38:59;100921.47;;;23.85;33.96
72707;BME280;62517;62.630;17.936;2022-09-29T10:41:27;100918.23;;;23.92;34.39
72707;BME280;62517;62.630;17.936;2022-09-29T10:43:55;100921.64;;;23.81;34.38
72707;BME280;62517;62.630;17.936;2022-09-29T10:46:48;100925.17;;;23.80;34.18
72707;BME280;62517;62.630;17.936;2022-09-29T10:49:19;100924.58;;;23.81;34.17
72707;BME280;62517;62.630;17.936;2022-09-29T10:51:56;100924.61;;;23.94;34.17
72707;BME280;62517;62.630;17.936;2022-09-29T10:54:29;100924.60;;;23.88;34.37
72707;BME280;62517;62.630;17.936;2022-09-29T10:56:58;100923.50;;;23.95;34.07
72707;BME280;62517;62.630;17.936;2022-09-29T10:59:31;100917.41;;;23.79;33.92
72707;BME280;62517;62.630;17.936;2022-09-29T11:02:00;100909.94;;;23.98;33.89
72707;BME280;62517;62.630;17.936;2022-09-29T11:04:31;100907.55;;;23.99;34.30
72707;BME280;62517;62.630;17.936;2022-09-29T11:07:08;100906.94;;;23.97;34.01
72707;BME280;62517;62.630;17.936;2022-09-29T11:09:45;100906.59;;;23.98;34.24
72707;BME280;62517;62.630;17.936;2022-09-29T11:12:27;100902.51;;;23.87;34.18
72707;BME280;62517;62.630;17.936;2022-09-29T11:14:56;100898.69;;;24.01;34.07
72707;BME280;62517;62.630;17.936;2022-09-29T11:17:27;100898.50;;;24.01;34.22
72707;BME280;62517;62.630;17.936;2022-09-29T11:19:59;100899.45;;;24.03;34.07
72707;BME280;62517;62.630;17.936;2022-09-29T11:22:41;100895.62;;;23.94;34.29
72707;BME280;62517;62.630;17.936;2022-09-29T11:25:24;100889.82;;;23.98;34.25
72707;BME280;62517;62.630;17.936;2022-09-29T11:28:04;100886.71;;;24.11;34.17
72707;BME280;62517;62.630;17.936;2022-09-29T11:30:44;100882.53;;;24.13;34.24
72707;BME280;62517;62.630;17.936;2022-09-29T11:33:25;100881.35;;;24.11;34.13
72707;BME280;62517;62.630;17.936;2022-09-29T11:36:03;100884.64;;;24.04;33.84
72707;BME280;62517;62.630;17.936;2022-09-29T11:39:00;100881.30;;;24.18;33.94
72707;BME280;62517;62.630;17.936;2022-09-29T11:41:40;100884.09;;;24.33;34.04
72707;BME280;62517;62.630;17.936;2022-09-29T11:44:26;100887.45;;;24.11;33.98
72707;BME280;62517;62.630;17.936;2022-09-29T11:47:05;100887.15;;;24.38;34.11
72707;BME280;62517;62.630;17.936;2022-09-29T11:49:50;100885.32;;;24.36;34.09
72707;BME280;62517;62.630;17.936;2022-09-29T11:52:36;100880.58;;;24.47;34.15
72707;BME280;62517;62.630;17.936;2022-09-29T11:55:18;100878.05;;;24.54;34.10
72707;BME280;62517;62.630;17.936;2022-09-29T11:58:01;100878.75;;;24.36;33.92
72707;BME280;62517;62.630;17.936;2022-09-29T12:00:46;100878.47;;;24.29;34.26
72707;BME280;62517;62.630;17.936;2022-09-29T12:03:22;100877.37;;;24.37;33.95
72707;BME280;62517;62.630;17.936;2022-09-29T12:06:03;100882.46;;;24.39;34.26
72707;BME280;62517;62.630;17.936;2022-09-29T12:08:49;100884.56;;;24.50;34.31
72707;BME280;62517;62.630;17.936;2022-09-29T12:11:25;100883.20;;;24.39;34.23
72707;BME280;62517;62.630;17.936;2022-09-29T12:14:04;100885.66;;;24.39;34.23
72707;BME280;62517;62.630;17.936;2022-09-29T12:16:37;100883.26;;;24.50;34.21
72707;BME280;62517;62.630;17.936;2022-09-29T12:19:12;100881.34;;;24.48;34.18
72707;BME280;62517;62.630;17.936;2022-09-29T12:21:50;100883.02;;;24.54;33.95
72707;BME280;62517;62.630;17.936;2022-09-29T12:24:31;100882.06;;;24.55;34.08
72707;BME280;62517;62.630;17.936;2022-09-29T12:27:04;100879.82;;;24.67;34.16
72707;BME280;62517;62.630;17.936;2022-09-29T12:29:37;100876.23;;;24.63;34.06
72707;BME280;62517;62.630;17.936;2022-09-29T12:32:10;100873.79;;;24.73;34.09
72707;BME280;62517;62.630;17.936;2022-09-29T12:34:49;100874.34;;;24.59;34.04
72707;BME280;62517;62.630;17.936;2022-09-29T12:37:24;100875.25;;;24.75;33.89
72707;BME280;62517;62.630;17.936;2022-09-29T12:40:02;100871.47;;;24.74;33.92
72707;BME280;62517;62.630;17.936;2022-09-29T12:42:40;100870.43;;;24.62;33.96
72707;BME280;62517;62.630;17.936;2022-09-29T12:45:21;100867.94;;;24.67;34.10
72707;BME280;62517;62.630;17.936;2022-09-29T12:47:56;100870.71;;;24.67;34.12
72707;BME280;62517;62.630;17.936;2022-09-29T12:50:31;100862.72;;;24.58;34.13
72707;BME280;62517;62.630;17.936;2022-09-29T12:53:12;100862.01;;;24.81;34.05
72707;BME280;62517;62.630;17.936;2022-09-29T12:55:49;100863.57;;;24.78;33.76
72707;BME280;62517;62.630;17.936;2022-09-29T12:58:34;100862.83;;;24.71;34.10
72707;BME280;62517;62.630;17.936;2022-09-29T13:01:18;100862.51;;;24.66;33.69
72707;BME280;62517;62.630;17.936;2022-09-29T13:05:06;100858.98;;;24.77;34.09
72707;BME280;62517;62.630;17.936;2022-09-29T13:08:05;100853.71;;;24.85;33.72
72707;BME280;62517;62.630;17.936;2022-09-29T13:10:58;100858.38;;;24.86;33.88
72707;BME280;62517;62.630;17.936;2022-09-29T13:13:59;100855.29;;;24.78;34.08
72707;BME280;62517;62.630;17.936;2022-09-29T13:16:46;100857.85;;;24.81;34.02
72707;BME280;62517;62.630;17.936;2022-09-29T13:19:29;100858.64;;;24.90;33.86
72707;BME280;62517;62.630;17.936;2022-09-29T13:22:23;100861.74;;;24.74;34.02
72707;BME280;62517;62.630;17.936;2022-09-29T13:24:58;100862.58;;;24.71;33.98
72707;BME280;62517;62.630;17.936;2022-09-29T13:27:32;100861.18;;;24.80;33.94
72707;BME280;62517;62.630;17.936;2022-09-29T13:30:11;100863.97;;;24.93;33.99
72707;BME280;62517;62.630;17.936;2022-09-29T13:32:43;100860.29;;;24.74;33.63
72707;BME280;62517;62.630;17.936;2022-09-29T13:35:16;100859.71;;;24.80;33.78
72707;BME280;62517;62.630;17.936;2022-09-29T13:37:49;100857.58;;;24.79;33.68
72707;BME280;62517;62.630;17.936;2022-09-29T13:40:22;100853.06;;;24.86;33.82
72707;BME280;62517;62.630;17.936;2022-09-29T13:42:51;100849.57;;;24.77;33.56
72707;BME280;62517;62.630;17.936;2022-09-29T13:45:42;100848.32;;;24.78;33.48
72707;BME280;62517;62.630;17.936;2022-09-29T13:49:24;100848.78;;;24.77;33.86
72707;BME280;62517;62.630;17.936;2022-09-29T13:51:54;100848.87;;;24.86;33.82
72707;BME280;62517;62.630;17.936;2022-09-29T13:54:25;100844.72;;;24.67;33.82
72707;BME280;62517;62.630;17.936;2022-09-29T13:57:27;100843.21;;;24.90;33.58
72707;BME280;62517;62.630;17.936;2022-09-29T14:00:19;100842.21;;;24.72;33.58
72707;BME280;62517;62.630;17.936;2022-09-29T14:03:00;100844.57;;;24.77;33.55
72707;BME280;62517;62.630;17.936;2022-09-29T14:05:45;100841.44;;;24.67;33.75
72707;BME280;62517;62.630;17.936;2022-09-29T14:08:24;100839.47;;;24.73;33.72
72707;BME280;62517;62.630;17.936;2022-09-29T14:11:02;100838.56;;;24.64;33.29
72707;BME280;62517;62.630;17.936;2022-09-29T14:13:40;100837.87;;;24.72;33.26
72707;BME280;62517;62.630;17.936;2022-09-29T14:16:23;100839.44;;;24.78;33.55
72707;BME280;62517;62.630;17.936;2022-09-29T14:18:58;100835.64;;;24.69;33.65
72707;BME280;62517;62.630;17.936;2022-09-29T14:22:02;100836.22;;;24.66;33.59
72707;BME280;62517;62.630;17.936;2022-09-29T14:24:47;100836.12;;;24.65;33.37
72707;BME280;62517;62.630;17.936;2022-09-29T14:27:24;100839.66;;;24.71;33.29
72707;BME280;62517;62.630;17.936;2022-09-29T14:29:59;100836.10;;;24.74;33.52
72707;BME280;62517;62.630;17.936;2022-09-29T14:32:37;100838.05;;;24.77;33.51
72707;BME280;62517;62.630;17.936;2022-09-29T14:35:16;100834.66;;;24.69;33.45
72707;BME280;62517;62.630;17.936;2022-09-29T14:37:52;100835.85;;;24.66;33.19
72707;BME280;62517;62.630;17.936;2022-09-29T14:40:24;100833.06;;;24.64;33.45
72707;BME280;62517;62.630;17.936;2022-09-29T14:43:04;100834.48;;;24.70;33.22
72707;BME280;62517;62.630;17.936;2022-09-29T14:45:43;100834.22;;;24.68;33.27
72707;BME280;62517;62.630;17.936;2022-09-29T14:48:19;100834.31;;;24.62;33.40
72707;BME280;62517;62.630;17.936;2022-09-29T14:51:05;100833.76;;;24.74;33.25
72707;BME280;62517;62.630;17.936;2022-09-29T14:53:48;100834.56;;;24.72;33.38
72707;BME280;62517;62.630;17.936;2022-09-29T14:56:32;100832.87;;;24.59;33.31
72707;BME280;62517;62.630;17.936;2022-09-29T14:59:13;100833.21;;;24.68;33.03
72707;BME280;62517;62.630;17.936;2022-09-29T15:02:06;100833.66;;;24.60;33.03
72707;BME280;62517;62.630;17.936;2022-09-29T15:04:41;100836.58;;;24.60;32.92
72707;BME280;62517;62.630;17.936;2022-09-29T15:07:12;100837.08;;;24.45;33.12
72707;BME280;62517;62.630;17.936;2022-09-29T15:09:47;100835.05;;;24.54;33.24
72707;BME280;62517;62.630;17.936;2022-09-29T15:12:19;100836.21;;;24.54;33.14
72707;BME280;62517;62.630;17.936;2022-09-29T15:14:49;100832.79;;;24.62;33.15
72707;BME280;62517;62.630;17.936;2022-09-29T15:17:28;100834.55;;;24.57;32.94
72707;BME280;62517;62.630;17.936;2022-09-29T15:20:04;100835.05;;;24.55;33.05
72707;BME280;62517;62.630;17.936;2022-09-29T15:22:51;100834.59;;;24.54;32.79
72707;BME280;62517;62.630;17.936;2022-09-29T15:25:38;100831.96;;;24.51;33.11
72707;BME280;62517;62.630;17.936;2022-09-29T15:28:13;100833.49;;;24.52;33.12
72707;BME280;62517;62.630;17.936;2022-09-29T15:30:48;100835.18;;;24.53;32.65
72707;BME280;62517;62.630;17.936;2022-09-29T15:33:21;100837.83;;;24.36;33.03
72707;BME280;62517;62.630;17.936;2022-09-29T15:35:52;100840.89;;;24.43;32.98
72707;BME280;62517;62.630;17.936;2022-09-29T15:38:31;100840.52;;;24.48;33.07
72707;BME280;62517;62.630;17.936;2022-09-29T15:41:02;100838.08;;;24.41;33.12
72707;BME280;62517;62.630;17.936;2022-09-29T15:43:39;100836.46;;;24.33;32.79
72707;BME280;62517;62.630;17.936;2022-09-29T15:46:14;100835.74;;;24.42;33.15
72707;BME280;62517;62.630;17.936;2022-09-29T15:49:13;100835.40;;;24.36;33.14
72707;BME280;62517;62.630;17.936;2022-09-29T15:51:43;100833.37;;;24.36;32.69
72707;BME280;62517;62.630;17.936;2022-09-29T15:54:13;100832.28;;;24.31;33.08
72707;BME280;62517;62.630;17.936;2022-09-29T15:56:45;100831.70;;;24.51;33.07
72707;BME280;62517;62.630;17.936;2022-09-29T15:59:17;100836.70;;;24.34;32.96
72707;BME280;62517;62.630;17.936;2022-09-29T16:03:17;100834.72;;;24.46;33.06
72707;BME280;62517;62.630;17.936;2022-09-29T16:06:01;100837.15;;;24.35;32.89
72707;BME280;62517;62.630;17.936;2022-09-29T16:08:33;100838.32;;;24.32;32.65
72707;BME280;62517;62.630;17.936;2022-09-29T16:11:07;100839.81;;;24.38;33.05
72707;BME280;62517;62.630;17.936;2022-09-29T16:13:38;100841.68;;;24.30;32.77
72707;BME280;62517;62.630;17.936;2022-09-29T16:16:09;100842.54;;;24.37;32.92
72707;BME280;62517;62.630;17.936;2022-09-29T16:18:41;100857.20;;;24.30;33.01
72707;BME280;62517;62.630;17.936;2022-09-29T16:21:13;100858.99;;;24.30;32.98
72707;BME280;62517;62.630;17.936;2022-09-29T16:23:47;100858.05;;;24.34;32.97
72707;BME280;62517;62.630;17.936;2022-09-29T16:26:18;100858.33;;;24.22;32.97
72707;BME280;62517;62.630;17.936;2022-09-29T16:29:26;100861.14;;;24.38;32.83
72707;BME280;62517;62.630;17.936;2022-09-29T16:31:56;100858.30;;;24.31;32.55
72707;BME280;62517;62.630;17.936;2022-09-29T16:34:28;100859.29;;;24.25;32.75
72707;BME280;62517;62.630;17.936;2022-09-29T16:37:00;100856.69;;;24.29;32.81
72707;BME280;62517;62.630;17.936;2022-09-29T16:39:31;100856.36;;;24.29;32.83
72707;BME280;62517;62.630;17.936;2022-09-29T16:42:02;100859.10;;;24.28;32.74
72707;BME280;62517;62.630;17.936;2022-09-29T16:44:32;100863.10;;;24.17;32.80
72707;BME280;62517;62.630;17.936;2022-09-29T16:47:09;100864.22;;;24.18;32.63
72707;BME280;62517;62.630;17.936;2022-09-29T16:49:46;100870.78;;;24.20;32.61
72707;BME280;62517;62.630;17.936;2022-09-29T16:52:19;100884.89;;;24.28;32.54
72707;BME280;62517;62.630;17.936;2022-09-29T16:54:50;100880.71;;;24.27;32.57
72707;BME280;62517;62.630;17.936;2022-09-29T16:57:23;100878.84;;;24.28;32.39
72707;BME280;62517;62.630;17.936;2022-09-29T16:59:54;100883.72;;;24.26;32.65
72707;BME280;62517;62.630;17.936;2022-09-29T17:02:24;100880.53;;;24.20;32.62
